Runaway Bay, Texas
Current Conditions -  °F | °C
As of 1:35 PM on Sunday 21 Dec 2014 (Local Time) from KXBP Reporting Station
Overcast Overcast  
Wind Chill: 51°   Ceiling: 1800
Heat Index: 51°   Visibility: 10mi
Dew Point: 47°   Wind: 12mph
Humidity: 86%   Direction: 170°S
Pressure: 29.91"   Gusts: 17mph
Location:  33.1691°N, 97.8246°W
Report Text: KXBP 211935Z AUTO 17010G15KT 10SM OVC018 11/08 A2991 RMK AO2 T01050083
Loading
Personal Weather Stations






























Interactive Weather Map New forecast layout! Learn more

10-Day Weather Forecast

Advertisements
Track Severe Weather on mobile